TimeEST,TemperatureF,Dew PointF,Humidity,Sea Level PressureIn,VisibilityMPH,Wind Direction,Wind SpeedMPH,Gust SpeedMPH,PrecipitationIn,Events,Conditions,WindDirDegrees,DateUTC
12:15 AM,18.9,18.5,98,30.16,10.0,North,-9999.0,-,N/A,,Clear,0,2012-12-23 05:15:00
12:35 AM,18.3,18.0,98,30.15,10.0,North,-9999.0,-,N/A,,Clear,0,2012-12-23 05:35:00
12:55 AM,18.5,18.1,98,30.15,10.0,North,-9999.0,-,N/A,,Clear,0,2012-12-23 05:55:00
1:15 AM,18.3,18.0,98,30.15,10.0,North,-9999.0,-,N/A,,Clear,0,2012-12-23 06:15:00
1:35 AM,18.3,18.0,98,30.15,10.0,North,-9999.0,-,N/A,,Clear,0,2012-12-23 06:35:00
1:55 AM,18.0,17.4,98,30.15,10.0,North,-9999.0,-,N/A,,Clear,0,2012-12-23 06:55:00
2:15 AM,17.6,17.2,98,30.15,10.0,North,-9999.0,-,N/A,,Clear,0,2012-12-23 07:15:00
2:35 AM,18.0,17.6,98,30.14,10.0,North,-9999.0,-,N/A,,Clear,0,2012-12-23 07:35:00
2:55 AM,17.4,16.7,97,30.15,10.0,North,-9999.0,-,N/A,,Clear,0,2012-12-23 07:55:00
3:15 AM,17.2,16.7,98,30.15,10.0,North,-9999.0,-,N/A,,Clear,0,2012-12-23 08:15:00
3:35 AM,17.1,16.5,98,30.15,10.0,North,-9999.0,-,N/A,,Clear,0,2012-12-23 08:35:00
3:55 AM,17.1,16.5,98,30.14,10.0,North,-9999.0,-,N/A,,Clear,0,2012-12-23 08:55:00
4:15 AM,16.7,16.2,98,30.14,10.0,North,-9999.0,-,N/A,,Clear,0,2012-12-23 09:15:00
4:35 AM,16.5,15.8,97,30.13,10.0,North,-9999.0,-,N/A,,Clear,0,2012-12-23 09:35:00
4:55 AM,16.0,15.3,97,30.13,10.0,North,-9999.0,-,N/A,,Clear,0,2012-12-23 09:55:00
5:15 AM,16.3,15.8,98,30.13,10.0,North,-9999.0,-,N/A,,Clear,0,2012-12-23 10:15:00
5:35 AM,16.2,15.4,97,30.13,10.0,North,-9999.0,-,N/A,,Clear,0,2012-12-23 10:35:00
5:55 AM,16.2,15.4,97,30.13,10.0,North,-9999.0,-,N/A,,Clear,0,2012-12-23 10:55:00
6:15 AM,16.0,15.3,97,30.13,10.0,North,-9999.0,-,N/A,,Clear,0,2012-12-23 11:15:00
6:35 AM,15.8,15.3,98,30.13,10.0,North,-9999.0,-,N/A,,Clear,0,2012-12-23 11:35:00
6:55 AM,16.0,15.4,98,30.13,10.0,North,-9999.0,-,N/A,,Clear,0,2012-12-23 11:55:00
7:15 AM,16.0,15.4,98,30.12,10.0,North,-9999.0,-,N/A,,Clear,0,2012-12-23 12:15:00
7:35 AM,15.8,15.3,98,30.12,10.0,North,-9999.0,-,N/A,,Clear,0,2012-12-23 12:35:00
7:55 AM,16.5,15.8,97,30.11,10.0,North,-9999.0,-,N/A,,Clear,0,2012-12-23 12:55:00
8:15 AM,16.7,15.8,96,30.11,10.0,North,-9999.0,-,N/A,,Clear,0,2012-12-23 13:15:00
8:35 AM,16.9,16.3,98,30.11,10.0,North,-9999.0,-,N/A,,Clear,0,2012-12-23 13:35:00
8:55 AM,20.1,19.9,99,30.11,10.0,North,-9999.0,-,N/A,,Clear,0,2012-12-23 13:55:00
9:15 AM,22.1,22.1,100,30.10,10.0,North,-9999.0,-,N/A,,Clear,0,2012-12-23 14:15:00
9:35 AM,24.6,24.4,99,30.10,10.0,North,-9999.0,-,N/A,,Clear,0,2012-12-23 14:35:00
9:55 AM,26.6,26.2,99,30.10,10.0,North,-9999.0,-,N/A,,Clear,0,2012-12-23 14:55:00
10:15 AM,28.2,27.3,96,30.10,10.0,North,-9999.0,-,N/A,,Clear,0,2012-12-23 15:15:00
10:35 AM,30.9,29.3,94,30.10,10.0,North,-9999.0,-,N/A,,Clear,0,2012-12-23 15:35:00
10:55 AM,32.4,30.9,94,30.10,10.0,North,-9999.0,-,N/A,,Clear,0,2012-12-23 15:55:00
11:15 AM,34.2,32.0,92,30.09,10.0,North,-9999.0,-,N/A,,Clear,0,2012-12-23 16:15:00
11:35 AM,36.5,32.2,84,30.08,10.0,North,-9999.0,-,N/A,,Clear,0,2012-12-23 16:35:00
11:55 AM,37.9,33.3,83,30.07,10.0,North,-9999.0,-,N/A,,Mostly Cloudy,0,2012-12-23 16:55:00
12:15 PM,41.0,32.0,70,30.06,10.0,North,-9999.0,-,N/A,,Mostly Cloudy,0,2012-12-23 17:15:00
12:35 PM,41.9,28.4,59,30.05,10.0,North,-9999.0,-,N/A,,Mostly Cloudy,0,2012-12-23 17:35:00
12:55 PM,41.4,31.5,68,30.04,10.0,North,-9999.0,-,N/A,,Overcast,0,2012-12-23 17:55:00
1:15 PM,39.7,33.8,79,30.03,10.0,North,-9999.0,-,N/A,,Overcast,0,2012-12-23 18:15:00
1:35 PM,39.6,34.3,82,30.03,10.0,North,-9999.0,-,N/A,,Scattered Clouds,0,2012-12-23 18:35:00
1:55 PM,40.1,34.3,80,30.02,10.0,North,-9999.0,-,N/A,,Scattered Clouds,0,2012-12-23 18:55:00
2:15 PM,41.2,34.3,77,30.01,10.0,North,-9999.0,-,N/A,,Mostly Cloudy,0,2012-12-23 19:15:00
2:35 PM,41.9,35.2,77,30.01,10.0,North,-9999.0,-,N/A,,Mostly Cloudy,0,2012-12-23 19:35:00
2:55 PM,40.5,34.7,80,30.00,10.0,North,-9999.0,-,N/A,,Scattered Clouds,0,2012-12-23 19:55:00
3:15 PM,40.5,35.1,81,30.01,10.0,North,-9999.0,-,N/A,,Scattered Clouds,0,2012-12-23 20:15:00
3:35 PM,39.6,34.7,83,30.00,10.0,North,-9999.0,-,N/A,,Scattered Clouds,0,2012-12-23 20:35:00
3:55 PM,38.8,34.9,86,30.01,10.0,North,-9999.0,-,N/A,,Clear,0,2012-12-23 20:55:00
4:15 PM,38.1,34.7,87,30.01,10.0,North,-9999.0,-,N/A,,Clear,0,2012-12-23 21:15:00
4:35 PM,36.9,34.0,89,30.01,10.0,North,-9999.0,-,N/A,,Clear,0,2012-12-23 21:35:00
4:55 PM,35.6,33.1,91,30.01,10.0,North,-9999.0,-,N/A,,Clear,0,2012-12-23 21:55:00
5:15 PM,34.2,32.2,92,30.01,10.0,North,-9999.0,-,N/A,,Clear,0,2012-12-23 22:15:00
5:35 PM,32.9,32.0,96,30.01,10.0,North,-9999.0,-,N/A,,Clear,0,2012-12-23 22:35:00
5:55 PM,32.4,32.0,99,30.02,10.0,North,-9999.0,-,N/A,,Clear,0,2012-12-23 22:55:00
6:15 PM,32.0,31.6,99,30.02,10.0,North,-9999.0,-,N/A,,Clear,0,2012-12-23 23:15:00
6:35 PM,31.8,31.1,97,30.02,10.0,North,-9999.0,-,N/A,,Clear,0,2012-12-23 23:35:00
6:55 PM,31.1,30.7,99,30.02,10.0,North,-9999.0,-,N/A,,Clear,0,2012-12-23 23:55:00
7:15 PM,31.1,30.7,99,30.03,10.0,North,-9999.0,-,N/A,,Clear,0,2012-12-24 00:15:00
7:35 PM,30.7,30.2,98,30.03,10.0,North,-9999.0,-,N/A,,Clear,0,2012-12-24 00:35:00
7:55 PM,30.7,30.6,99,30.03,10.0,North,-9999.0,-,N/A,,Clear,0,2012-12-24 00:55:00
8:15 PM,30.2,30.2,100,30.04,10.0,North,-9999.0,-,N/A,,Clear,0,2012-12-24 01:15:00
8:35 PM,29.8,29.7,99,30.04,10.0,North,-9999.0,-,N/A,,Clear,0,2012-12-24 01:35:00
8:55 PM,30.2,30.2,100,30.04,10.0,North,-9999.0,-,N/A,,Clear,0,2012-12-24 01:55:00
9:15 PM,29.8,29.7,99,30.04,10.0,North,-9999.0,-,N/A,,Clear,0,2012-12-24 02:15:00
9:35 PM,29.8,29.8,100,30.05,10.0,North,-9999.0,-,N/A,,Clear,0,2012-12-24 02:35:00
9:55 PM,29.8,29.8,100,30.05,10.0,North,-9999.0,-,N/A,,Scattered Clouds,0,2012-12-24 02:55:00
10:15 PM,29.7,29.7,100,30.05,10.0,North,-9999.0,-,N/A,,Scattered Clouds,0,2012-12-24 03:15:00
10:35 PM,29.8,29.8,100,30.05,10.0,North,-9999.0,-,N/A,,Mostly Cloudy,0,2012-12-24 03:35:00
10:55 PM,30.2,30.2,100,30.06,10.0,North,-9999.0,-,N/A,,Overcast,0,2012-12-24 03:55:00
11:15 PM,31.6,31.6,100,30.05,10.0,North,-9999.0,-,N/A,,Overcast,0,2012-12-24 04:15:00
11:35 PM,32.0,32.0,100,30.04,10.0,North,-9999.0,-,N/A,,Overcast,0,2012-12-24 04:35:00
11:55 PM,32.5,32.5,100,30.04,10.0,North,-9999.0,-,N/A,,Overcast,0,2012-12-24 04:55:00